Rechercher aéroport 
image banner adimage banner ad
image banner ad

EVOC - Old City Heliport

Situé à , Latvia

ICAO - , IATA -

Données fournies par Airmate  

Information générale

Coordonnées: N56°57'24" E24°5'45"
Élévation : feet MSL.
 
Voir autres Aéroports à Riga (city)

Données opérationnelles

Accessible au public
Heure actuelle UTC:
Heure actuelle locale:
Météo à : EVRA - Riga ( 8 km )
METAR: EVRA 310350Z 00000KT 5000 BR FEW008 OVC011 07/07 Q1020 R18/290195 NOSIG
TAF: TAF EVRA 310204Z 3103/0103 VRB02KT 7000 BKN005 TEMPO 3103/3108 0600 FG BKN001 BECMG 3108/3110 BKN015 TEMPO 3118/3122 3000 BR SCT005 TEMPO 3122/0103 0600 FG VV002
Voir NOTAMs / SUP AIP / TFR affectant cet aéroport [VIEW]
Fréquences de communication: [VIEW]

Pistes:

Coordonnées de l'aéroport

Adresse: Latvia

Vue satellite de EVOC